< Typhoon 197230 1972 Season Typhoon 197301 >
Typhoon 197231 (VIOLET)
General InformationTrack Information on Google Maps || Disaster Info.ResourceGoogle EarthGE AnimationAtom FeedGeoJSON
Detalied Best Track (Time Zone = UTC)
Year Month Day Hour Lat. Long. Pressure (hPa) Wind (kt) Class Image Chart
1972 12 12 00 6.1 171.5 1004 0 2 -- Chart
1972 12 12 06 6.5 170.6 1004 0 2 -- Chart
1972 12 12 12 7.3 170.0 1002 0 2 -- Chart
1972 12 12 18 7.9 170.0 1002 0 2 -- Chart
1972 12 13 00 8.5 170.2 1002 0 2 -- Chart
1972 12 13 06 9.0 170.4 995 0 9 -- Chart
1972 12 13 12 9.3 170.0 995 0 9 -- Chart
1972 12 13 18 9.3 170.0 995 0 9 -- Chart
1972 12 14 00 9.5 170.0 998 0 9 -- Chart
1972 12 14 06 9.5 170.5 998 0 9 -- Chart
1972 12 14 12 9.2 170.3 1002 0 9 -- Chart
1972 12 14 18 9.3 169.9 1002 0 9 -- Chart
1972 12 15 00 9.2 169.1 1002 0 9 -- Chart
1972 12 15 06 8.9 168.5 1002 0 9 -- Chart
1972 12 15 12 8.4 168.2 1002 0 9 -- Chart
1972 12 15 18 8.2 168.2 1002 0 2 -- Chart
1972 12 16 00 8.2 167.7 1002 0 2 -- Chart
1972 12 16 06 8.4 167.4 1002 0 2 -- Chart
1972 12 16 12 8.3 167.1 1004 0 2 -- Chart
1972 12 16 18 7.9 167.2 1004 0 2 -- Chart
1972 12 17 00 7.4 167.3 1006 0 2 -- Chart
1972 12 17 06 6.8 167.1 1006 0 2 -- Chart
1972 12 17 12 6.8 166.2 1006 0 2 -- Chart
1972 12 17 18 6.8 164.9 1006 0 2 -- Chart
1972 12 18 00 6.7 163.7 1006 0 2 -- Chart
1972 12 18 06 6.5 162.7 1006 0 2 -- Chart
1972 12 18 12 6.2 161.5 1006 0 2 -- Chart
1972 12 18 18 6.0 160.3 1006 0 2 -- Chart
1972 12 19 00 5.6 159.0 1006 0 2 -- Chart
1972 12 19 06 5.7 157.5 1006 0 2 -- Chart
1972 12 19 12 6.0 156.1 1008 0 2 -- Chart
1972 12 19 18 6.7 154.9 1008 0 2 -- Chart
1972 12 20 00 7.3 153.8 1008 0 2 -- Chart
1972 12 20 06 8.0 152.5 1008 0 2 -- Chart
1972 12 20 12 8.4 151.3 1010 0 2 -- Chart
1972 12 20 18 8.5 150.0 1010 0 2 -- Chart
1972 12 21 00 8.0 149.0 1010 0 2 -- Chart
1972 12 21 06 7.0 148.5 1010 0 2 -- Chart
1972 12 21 12 7.0 147.5 1012 0 2 -- Chart
Japan Meteorological Agency Best Track Data | Correction Date : 1989-06-01
< Typhoon 197230 1972 Season Typhoon 197301 >

Help